Time;durP1;ratioP1;P1;durP2;ratioP2;P2;SDS_P1;SDS_P2;PMS_P1;PMS_P2;Temp;Humidity;BMP_temperature;BMP_pressure;BME280_temperature;BME280_humidity;BME280_pressure;Samples;Min_cycle;Max_cycle;Signal;HPM_P1;HPM_P2
2022/11/05 00:10:22;;;;;;;15.35;8.45;;;;;;;9.04;100.00;100351.06;5220161;28;20064;-74
2022/11/05 00:18:32;;;;;;;13.00;7.97;;;;;;;9.10;100.00;100363.88;5220382;28;20032;-74
2022/11/05 00:21:02;;;;;;;16.65;8.55;;;;;;;9.07;100.00;100361.41;5220894;28;20033;-74
2022/11/05 00:26:21;;;;;;;14.85;8.70;;;;;;;8.97;100.00;100365.22;5220151;28;20044;-73
2022/11/05 00:28:51;;;;;;;15.93;8.15;;;;;;;8.86;100.00;100362.09;5218780;28;20021;-74
2022/11/05 00:31:21;;;;;;;13.73;8.07;;;;;;;8.79;100.00;100363.22;5220953;28;20041;-74
2022/11/05 00:33:52;;;;;;;14.60;8.40;;;;;;;8.83;100.00;100369.16;5220578;28;20117;-73
2022/11/05 00:36:22;;;;;;;15.38;8.57;;;;;;;8.68;100.00;100372.22;5220897;28;20033;-74
2022/11/05 00:38:52;;;;;;;15.75;9.02;;;;;;;8.65;100.00;100386.22;5220115;28;20021;-74
2022/11/05 00:41:23;;;;;;;17.38;8.88;;;;;;;8.62;100.00;100388.06;5220863;28;20455;-74
2022/11/05 00:46:41;;;;;;;18.38;9.05;;;;;;;8.68;100.00;100383.50;5220910;28;20402;-74
2022/11/05 00:49:30;;;;;;;16.88;8.45;;;;;;;8.55;100.00;100396.97;5220679;28;20033;-74
2022/11/05 00:54:49;;;;;;;17.38;8.70;;;;;;;8.50;100.00;100393.63;5220599;28;20051;-74
2022/11/05 00:57:19;;;;;;;16.63;8.98;;;;;;;8.57;100.00;100405.59;5220988;28;20118;-74
2022/11/05 00:59:49;;;;;;;15.23;8.48;;;;;;;8.43;100.00;100407.75;5220596;28;20502;-74
2022/11/05 01:02:19;;;;;;;16.15;9.43;;;;;;;8.27;100.00;100402.16;5223178;28;20025;-73
2022/11/05 01:04:50;;;;;;;15.32;9.00;;;;;;;8.34;100.00;100419.28;5225038;28;20028;-74
2022/11/05 01:07:20;;;;;;;16.20;8.80;;;;;;;8.26;100.00;100410.00;5224313;28;20039;-73
2022/11/05 01:09:50;;;;;;;16.27;8.95;;;;;;;8.14;100.00;100415.50;5224770;28;20024;-73
2022/11/05 01:12:20;;;;;;;16.88;9.13;;;;;;;8.13;100.00;100414.66;5225168;28;20025;-74
2022/11/05 01:14:51;;;;;;;18.55;8.70;;;;;;;8.09;100.00;100415.66;5224803;28;20086;-74
2022/11/05 01:17:21;;;;;;;17.65;8.95;;;;;;;8.12;100.00;100419.91;5223224;28;20035;-74
2022/11/05 01:19:51;;;;;;;17.10;9.30;;;;;;;8.11;100.00;100424.28;5224791;28;20024;-74
2022/11/05 01:22:21;;;;;;;18.02;8.98;;;;;;;8.14;100.00;100425.91;5225066;28;20311;-74
2022/11/05 01:24:52;;;;;;;17.73;9.10;;;;;;;8.05;100.00;100429.63;5223792;28;20560;-73
2022/11/05 01:27:22;;;;;;;21.33;9.27;;;;;;;8.12;100.00;100431.19;5224466;28;20025;-74
2022/11/05 01:29:52;;;;;;;14.32;8.48;;;;;;;8.02;100.00;100431.47;5224077;28;20029;-74
2022/11/05 01:32:22;;;;;;;15.63;8.60;;;;;;;7.94;100.00;100428.22;5216437;28;20087;-74
2022/11/05 01:34:53;;;;;;;16.15;8.90;;;;;;;7.86;100.00;100428.41;5218543;28;20031;-74
2022/11/05 01:37:23;;;;;;;25.20;9.10;;;;;;;7.96;100.00;100421.22;5223266;28;20025;-74
2022/11/05 01:39:53;;;;;;;15.60;8.63;;;;;;;7.99;100.00;100429.81;5219424;28;20029;-74
2022/11/05 01:42:26;;;;;;;15.80;8.18;;;;;;;7.83;100.00;100423.31;5224065;28;20036;-74
2022/11/05 01:45:06;;;;;;;15.57;8.48;;;;;;;7.78;100.00;100424.31;5224231;28;20203;-74
2022/11/05 01:47:45;;;;;;;17.23;8.65;;;;;;;7.73;100.00;100427.03;5223187;28;20053;-74
2022/11/05 01:50:25;;;;;;;16.35;8.27;;;;;;;7.69;100.00;100432.38;5222388;28;20037;-74
2022/11/05 01:53:02;;;;;;;18.10;8.77;;;;;;;7.67;100.00;100432.41;5219684;28;20043;-74
2022/11/05 01:55:38;;;;;;;16.98;8.07;;;;;;;7.61;100.00;100437.78;5224456;28;20020;-73
2022/11/05 01:58:13;;;;;;;15.55;7.90;;;;;;;7.58;100.00;100435.28;5223179;28;20082;-73
2022/11/05 02:00:43;;;;;;;16.13;8.60;;;;;;;7.56;100.00;100442.22;5222414;28;20297;-74
2022/11/05 02:03:15;;;;;;;14.88;7.65;;;;;;;7.57;100.00;100446.56;5223102;28;20025;-73
2022/11/05 02:05:48;;;;;;;14.73;8.20;;;;;;;7.57;100.00;100451.75;5223920;28;20037;-74
2022/11/05 02:08:39;;;;;;;17.40;7.68;;;;;;;7.50;100.00;100451.94;5221920;28;20033;-74
2022/11/05 02:11:13;;;;;;;16.80;7.38;;;;;;;7.43;100.00;100452.97;5221916;28;20509;-74
2022/11/05 02:13:43;;;;;;;14.27;7.85;;;;;;;7.37;100.00;100447.94;5223050;28;20086;-74
2022/11/05 02:16:36;;;;;;;14.60;7.90;;;;;;;7.36;100.00;100454.03;5223345;28;20032;-74
2022/11/05 02:19:44;;;;;;;17.13;7.65;;;;;;;7.34;100.00;100454.06;5221192;28;20025;-74
2022/11/05 02:22:42;;;;;;;16.70;7.63;;;;;;;7.31;100.00;100448.06;5221958;28;20524;-74
2022/11/05 02:25:37;;;;;;;12.45;7.55;;;;;;;7.22;100.00;100456.09;5220629;28;20033;-74
2022/11/05 02:28:32;;;;;;;15.00;7.60;;;;;;;7.22;100.00;100455.25;5220268;28;20081;-74
2022/11/05 02:31:21;;;;;;;17.67;7.15;;;;;;;7.24;100.00;100458.69;5220066;28;20127;-74
2022/11/05 02:34:15;;;;;;;12.07;6.40;;;;;;;7.19;100.00;100456.19;5223083;28;20025;-74
2022/11/05 02:36:53;;;;;;;18.98;7.95;;;;;;;7.19;100.00;100460.53;5220199;28;20024;-74
2022/11/05 02:39:45;;;;;;;14.65;6.97;;;;;;;7.25;100.00;100463.00;5222321;28;20100;-74
2022/11/05 02:42:16;;;;;;;14.90;7.07;;;;;;;7.15;100.00;100464.97;5222197;28;20032;-73
2022/11/05 02:45:16;;;;;;;13.63;7.10;;;;;;;7.07;100.00;100464.25;5223307;28;20028;-73
2022/11/05 02:48:22;;;;;;;13.80;7.30;;;;;;;7.09;100.00;100465.09;5222139;28;20859;-74
2022/11/05 02:51:02;;;;;;;14.65;7.47;;;;;;;7.14;100.00;100462.38;5222846;28;20033;-74
2022/11/05 02:54:12;;;;;;;16.65;6.65;;;;;;;7.19;100.00;100465.72;5219646;28;20033;-74
2022/11/05 02:56:48;;;;;;;14.30;6.90;;;;;;;7.06;100.00;100469.47;5220998;28;20025;-73
2022/11/05 02:59:18;;;;;;;13.20;6.50;;;;;;;7.12;100.00;100465.00;5221925;28;20111;-74
2022/11/05 03:01:50;;;;;;;12.70;5.78;;;;;;;7.13;100.00;100471.06;5222041;28;20116;-74
2022/11/05 03:04:23;;;;;;;13.40;5.80;;;;;;;7.17;100.00;100468.38;5222432;28;20021;-74
2022/11/05 03:10:44;;;;;;;10.77;5.68;;;;;;;6.94;100.00;100474.97;5243040;22;20502;-79
2022/11/05 03:13:24;;;;;;;12.50;5.75;;;;;;;6.55;100.00;100475.81;5223931;28;20051;-79
2022/11/05 03:16:04;;;;;;;11.65;5.35;;;;;;;6.63;100.00;100479.13;5220052;28;20051;-78
2022/11/05 03:18:43;;;;;;;9.60;5.70;;;;;;;6.53;100.00;100477.59;5224315;28;20446;-78
2022/11/05 03:21:20;;;;;;;9.25;4.95;;;;;;;6.34;100.00;100477.16;5225280;28;20036;-79
2022/11/05 03:24:23;;;;;;;10.30;5.78;;;;;;;6.28;100.00;100481.59;5224889;28;20029;-79
2022/11/05 03:26:59;;;;;;;11.73;5.85;;;;;;;6.28;100.00;100486.78;5216676;28;20041;-78
2022/11/05 03:29:35;;;;;;;12.65;6.65;;;;;;;6.08;100.00;100486.31;5220456;28;20024;-79
2022/11/05 03:32:08;;;;;;;12.00;6.93;;;;;;;6.01;100.00;100489.91;5224228;28;20041;-78
2022/11/05 03:34:44;;;;;;;14.55;6.50;;;;;;;5.92;100.00;100500.44;5224004;28;20039;-79
2022/11/05 03:37:17;;;;;;;13.90;6.78;;;;;;;6.11;100.00;100501.81;5223160;28;20033;-79
2022/11/05 03:39:51;;;;;;;10.45;6.70;;;;;;;6.18;100.00;100493.03;5222035;28;20021;-78
2022/11/05 03:42:27;;;;;;;12.98;7.10;;;;;;;6.07;100.00;100502.78;5223899;28;20075;-78
2022/11/05 03:44:59;;;;;;;;;;;;;;;6.02;100.00;100495.06;5220818;28;20083;-78
2022/11/05 03:47:36;;;;;;;11.80;6.13;;;;;;;5.97;100.00;100515.06;5223426;28;19917;-78
2022/11/05 03:50:21;;;;;;;12.48;6.03;;;;;;;5.99;100.00;100502.91;5221557;28;20394;-79
2022/11/05 03:52:53;;;;;;;44.05;3.78;;;;;;;5.73;100.00;100509.41;5223641;28;20033;-79
2022/11/05 03:55:52;;;;;;;11.10;3.33;;;;;;;5.70;100.00;100512.03;5218921;28;20021;-78
2022/11/05 03:58:23;;;;;;;12.68;6.22;;;;;;;5.74;100.00;100508.53;5220327;28;20025;-79
2022/11/05 04:00:54;;;;;;;6.95;3.75;;;;;;;5.90;100.00;100512.59;5217272;28;20406;-79
2022/11/05 04:03:24;;;;;;;6.88;3.72;;;;;;;5.77;100.00;100524.03;5222732;28;20032;-79
2022/11/05 04:14:22;;;;;;;11.98;5.53;;;;;;;5.65;100.00;100534.59;5223450;28;20036;-78
2022/11/05 04:17:11;;;;;;;11.95;5.53;;;;;;;5.56;100.00;100535.59;5223006;28;20021;-78
2022/11/05 04:25:22;;;;;;;9.70;5.38;;;;;;;5.57;100.00;100541.66;5223294;28;20036;-78
2022/11/05 04:27:58;;;;;;;12.02;5.93;;;;;;;5.51;100.00;100534.81;5222342;28;20475;-79
2022/11/05 04:30:28;;;;;;;10.75;5.78;;;;;;;5.62;100.00;100545.00;5220814;28;20363;-79
2022/11/05 04:33:10;;;;;;;11.57;5.50;;;;;;;5.74;100.00;100545.66;5222413;28;20047;-79
2022/11/05 04:35:43;;;;;;;11.40;5.70;;;;;;;5.62;100.00;100555.38;5220902;28;20021;-78
2022/11/05 04:38:16;;;;;;;11.40;5.50;;;;;;;5.58;100.00;100558.91;5221502;28;20476;-79
2022/11/05 04:40:47;;;;;;;9.48;5.03;;;;;;;5.61;100.00;100558.84;5222929;28;20029;-78
2022/11/05 04:43:18;;;;;;;11.55;6.20;;;;;;;5.51;100.00;100558.16;5221408;28;20430;-79
2022/11/05 04:45:48;;;;;;;13.68;5.57;;;;;;;5.59;100.00;100560.63;5222469;28;20162;-78
2022/11/05 04:48:18;;;;;;;10.70;5.32;;;;;;;5.36;100.00;100567.03;5221121;28;20530;-78
2022/11/05 04:50:48;;;;;;;12.77;5.28;;;;;;;5.27;100.00;100573.19;5221923;28;20032;-79
2022/11/05 04:53:19;;;;;;;11.68;5.75;;;;;;;5.41;100.00;100564.34;5221530;28;20082;-78
2022/11/05 04:55:49;;;;;;;8.23;4.88;;;;;;;5.42;100.00;100565.22;5221641;28;20032;-79
2022/11/05 04:58:20;;;;;;;8.52;4.35;;;;;;;5.38;100.00;100576.50;5220772;28;20021;-79
2022/11/05 05:00:50;;;;;;;13.43;5.03;;;;;;;5.47;100.00;100578.94;5221118;28;20482;-76
2022/11/05 05:03:20;;;;;;;26.27;12.00;;;;;;;5.20;100.00;100581.06;5220247;28;20060;-76
2022/11/05 05:05:51;;;;;;;13.73;5.85;;;;;;;5.11;100.00;100591.56;5220623;28;20040;-76
2022/11/05 05:08:21;;;;;;;10.60;5.60;;;;;;;5.17;100.00;100589.72;5219466;28;20578;-76
2022/11/05 05:10:51;;;;;;;12.60;5.32;;;;;;;4.95;100.00;100593.50;5220783;28;20403;-76
2022/11/05 05:13:22;;;;;;;9.68;4.85;;;;;;;5.20;100.00;100592.31;5219237;28;20221;-76
2022/11/05 05:15:52;;;;;;;14.13;5.53;;;;;;;4.86;100.00;100591.03;5220846;28;20025;-76
2022/11/05 05:18:24;;;;;;;18.05;9.75;;;;;;;4.91;100.00;100586.66;5218980;28;20032;-75
2022/11/05 05:23:47;;;;;;;18.95;9.40;;;;;;;4.77;100.00;100585.97;5220878;28;20124;-76
2022/11/05 05:26:17;;;;;;;11.55;5.38;;;;;;;4.81;100.00;100589.38;5220286;28;20391;-76
2022/11/05 05:28:47;;;;;;;6.95;4.10;;;;;;;4.94;100.00;100593.53;5219717;28;20017;-76
2022/11/05 05:31:19;;;;;;;5.88;3.85;;;;;;;4.89;100.00;100600.47;5220221;28;20037;-76
2022/11/05 05:33:52;;;;;;;9.13;5.07;;;;;;;4.74;100.00;100600.66;5220713;28;20482;-76
2022/11/05 05:36:23;;;;;;;8.40;4.88;;;;;;;4.60;100.00;100603.41;5219974;28;20107;-75
2022/11/05 05:38:53;;;;;;;10.57;6.45;;;;;;;4.55;100.00;100617.28;5214562;28;20087;-76
2022/11/05 05:41:23;;;;;;;9.95;5.50;;;;;;;4.58;100.00;100610.34;5219973;28;20505;-76
2022/11/05 05:43:54;;;;;;;11.30;6.07;;;;;;;4.74;100.00;100613.59;5220459;28;20040;-76
2022/11/05 05:46:24;;;;;;;9.70;5.32;;;;;;;4.75;100.00;100613.59;5220442;28;20052;-76
2022/11/05 05:48:54;;;;;;;10.48;5.10;;;;;;;4.77;100.00;100614.44;5221869;28;20017;-76
2022/11/05 05:51:24;;;;;;;9.55;5.03;;;;;;;4.75;100.00;100616.19;5224343;28;20036;-76
2022/11/05 05:53:55;;;;;;;9.55;5.20;;;;;;;4.62;100.00;100627.53;5223583;28;20035;-76
2022/11/05 05:56:25;;;;;;;10.95;6.70;;;;;;;4.42;100.00;100624.31;5223725;28;20078;-74
2022/11/05 05:58:55;;;;;;;10.57;6.05;;;;;;;4.56;100.00;100631.91;5223736;28;20024;-76
2022/11/05 06:01:25;;;;;;;10.82;5.50;;;;;;;4.52;100.00;100633.72;5223831;28;20418;-76
2022/11/05 06:03:56;;;;;;;9.70;5.47;;;;;;;4.49;100.00;100630.28;5223181;28;20021;-76
2022/11/05 06:06:26;;;;;;;9.27;5.28;;;;;;;4.34;100.00;100633.91;5223345;28;20032;-73
2022/11/05 06:08:56;;;;;;;10.02;5.45;;;;;;;4.35;100.00;100645.94;5223119;28;20505;-76
2022/11/05 06:11:27;;;;;;;8.55;4.43;;;;;;;4.27;100.00;100650.31;5223698;28;20514;-76
2022/11/05 06:13:57;;;;;;;8.27;4.15;;;;;;;4.31;100.00;100651.16;5222201;28;20589;-76
2022/11/05 06:16:28;;;;;;;8.82;4.78;;;;;;;4.19;100.00;100661.59;5222966;28;20032;-76
2022/11/05 06:18:58;;;;;;;10.30;5.07;;;;;;;4.21;100.00;100662.44;5223416;28;20031;-76
2022/11/05 06:21:29;;;;;;;9.57;4.85;;;;;;;4.45;100.00;100663.09;5223748;28;20029;-76
2022/11/05 06:24:01;;;;;;;7.85;4.95;;;;;;;4.53;100.00;100656.13;5223432;28;20200;-75
2022/11/05 06:26:31;;;;;;;8.27;5.07;;;;;;;4.43;100.00;100662.25;5223189;28;20025;-76
2022/11/05 06:29:01;;;;;;;10.07;5.35;;;;;;;4.66;100.00;100654.25;5222414;28;20040;-76
2022/11/05 06:31:31;;;;;;;9.07;4.85;;;;;;;4.87;100.00;100654.88;5223287;28;20033;-76
2022/11/05 06:34:02;;;;;;;9.68;5.15;;;;;;;4.88;100.00;100661.78;5223423;28;20087;-76
2022/11/05 06:36:32;;;;;;;12.07;6.40;;;;;;;4.95;100.00;100663.41;5223923;28;20029;-76
2022/11/05 06:39:02;;;;;;;15.57;7.80;;;;;;;4.80;100.00;100660.97;5222581;28;20166;-76
2022/11/05 06:41:33;;;;;;;21.15;8.48;;;;;;;4.79;100.00;100671.38;5223942;28;20120;-75
2022/11/05 06:44:03;;;;;;;14.02;6.78;;;;;;;4.74;100.00;100674.00;5222516;28;20510;-74
2022/11/05 06:46:33;;;;;;;13.63;7.03;;;;;;;4.59;100.00;100681.06;5222756;28;20033;-75
2022/11/05 06:49:04;;;;;;;12.35;6.30;;;;;;;4.72;100.00;100680.06;5222691;28;20060;-75
2022/11/05 06:51:34;;;;;;;13.05;5.40;;;;;;;4.65;100.00;100676.69;5222912;28;20517;-75
2022/11/05 06:54:04;;;;;;;21.20;5.93;;;;;;;4.26;100.00;100687.41;5222474;28;20045;-76
2022/11/05 06:56:34;;;;;;;10.57;5.68;;;;;;;4.21;100.00;100683.13;5222356;28;20074;-76
2022/11/05 06:59:05;;;;;;;19.58;5.55;;;;;;;4.30;100.00;100691.66;5222394;28;20033;-76
2022/11/05 07:01:36;;;;;;;13.60;5.40;;;;;;;4.35;100.00;100684.75;5222004;28;20042;-76
2022/11/05 07:04:06;;;;;;;13.45;5.80;;;;;;;4.39;100.00;100682.97;5214263;28;20039;-75
2022/11/05 07:06:36;;;;;;;13.15;5.57;;;;;;;4.55;100.00;100680.25;5220412;28;20482;-74
2022/11/05 07:09:07;;;;;;;12.27;5.30;;;;;;;4.67;100.00;100677.50;5219897;28;20445;-76
2022/11/05 07:11:37;;;;;;;11.98;5.80;;;;;;;4.71;100.00;100679.22;5221248;28;20040;-73
2022/11/05 07:14:07;;;;;;;13.80;5.47;;;;;;;4.74;100.00;100688.66;5221314;28;20115;-75
2022/11/05 07:16:38;;;;;;;10.10;5.10;;;;;;;4.91;100.00;100695.41;5221504;28;20067;-75
2022/11/05 07:19:08;;;;;;;10.82;5.07;;;;;;;5.15;100.00;100700.28;5221035;28;20025;-75
2022/11/05 07:21:39;;;;;;;9.48;4.95;;;;;;;5.25;100.00;100694.13;5222015;28;20025;-76
2022/11/05 07:24:10;;;;;;;12.20;5.30;;;;;;;5.52;100.00;100694.63;5222235;28;20052;-76
2022/11/05 07:26:40;;;;;;;13.95;5.90;;;;;;;5.35;100.00;100700.06;5221639;28;20649;-76
2022/11/05 07:29:11;;;;;;;13.35;5.00;;;;;;;5.56;100.00;100711.84;5220747;28;20029;-75
2022/11/05 07:31:41;;;;;;;13.25;5.45;;;;;;;5.56;100.00;100711.00;5221492;28;20551;-75
2022/11/05 07:34:11;;;;;;;18.10;6.10;;;;;;;5.52;100.00;100707.59;5221338;28;20061;-76
2022/11/05 07:36:41;;;;;;;12.60;6.30;;;;;;;5.72;100.00;100710.75;5221294;28;20404;-76
2022/11/05 07:39:12;;;;;;;11.90;5.32;;;;;;;5.92;100.00;100719.13;5220788;28;20091;-76
2022/11/05 07:41:42;;;;;;;10.80;5.43;;;;;;;6.18;100.00;100718.75;5221071;28;20326;-76
2022/11/05 07:44:13;;;;;;;12.82;5.28;;;;;;;6.41;100.00;100724.44;5222086;28;20036;-76
2022/11/05 07:46:43;;;;;;;8.73;4.97;;;;;;;6.95;100.00;100729.50;5222075;28;20471;-76
2022/11/05 07:49:13;;;;;;;11.82;4.55;;;;;;;8.17;100.00;100722.56;5221776;28;20032;-76
2022/11/05 07:51:44;;;;;;;9.93;4.20;;;;;;;8.61;99.73;100728.47;5222294;28;20036;-76
2022/11/05 07:54:14;;;;;;;11.40;4.50;;;;;;;9.72;100.00;100722.72;5221445;28;20039;-76
2022/11/05 07:56:46;;;;;;;9.48;3.92;;;;;;;10.05;94.21;100732.19;5221619;28;20020;-76
2022/11/05 07:59:16;;;;;;;11.90;4.15;;;;;;;11.28;87.13;100721.84;5220416;28;20045;-76
2022/11/05 08:01:46;;;;;;;8.73;3.38;;;;;;;11.63;87.17;100720.59;5221445;28;20052;-77
2022/11/05 08:04:16;;;;;;;11.02;3.70;;;;;;;11.51;84.54;100721.00;5221336;28;20394;-77
2022/11/05 08:06:47;;;;;;;12.05;3.65;;;;;;;11.79;86.27;100727.78;5220985;28;20052;-77
2022/11/05 08:09:17;;;;;;;11.70;5.07;;;;;;;12.14;85.30;100739.53;5220804;28;20643;-77
2022/11/05 08:11:47;;;;;;;8.23;3.50;;;;;;;12.68;85.24;100722.44;5219875;28;20029;-77
2022/11/05 08:14:18;;;;;;;10.75;4.00;;;;;;;13.35;80.86;100729.13;5220669;28;20282;-75
2022/11/05 08:16:48;;;;;;;10.80;3.77;;;;;;;14.56;75.30;100730.41;5221346;28;20195;-77
2022/11/05 08:19:18;;;;;;;9.48;3.42;;;;;;;13.47;79.85;100726.84;5221756;28;20271;-77
2022/11/05 08:21:48;;;;;;;8.68;3.55;;;;;;;14.34;79.78;100722.72;5219938;28;20108;-76
2022/11/05 08:24:19;;;;;;;9.57;3.83;;;;;;;14.69;78.14;100731.50;5219373;28;20461;-77
2022/11/05 08:26:49;;;;;;;8.97;4.07;;;;;;;14.02;76.76;100730.38;5220244;28;20275;-77
2022/11/05 08:29:19;;;;;;;8.70;4.00;;;;;;;14.24;78.80;100731.13;5219198;28;20374;-77
2022/11/05 08:31:49;;;;;;;10.70;4.25;;;;;;;14.55;78.69;100728.69;5220871;28;20037;-77
2022/11/05 08:34:20;;;;;;;10.57;4.05;;;;;;;13.73;82.08;100744.03;5219762;28;20242;-77
2022/11/05 08:36:50;;;;;;;10.90;4.23;;;;;;;12.42;85.94;100746.25;5219794;28;20071;-77
2022/11/05 08:39:20;;;;;;;11.45;4.25;;;;;;;11.76;91.12;100754.09;5220613;28;20272;-77
2022/11/05 08:41:51;;;;;;;11.52;4.38;;;;;;;10.94;97.01;100761.44;5220943;28;20546;-76
2022/11/05 08:44:21;;;;;;;13.68;4.75;;;;;;;10.87;98.73;100762.59;5220814;28;20048;-76
2022/11/05 08:46:51;;;;;;;15.82;5.18;;;;;;;10.98;100.00;100757.81;5220671;28;20031;-76
2022/11/05 08:49:21;;;;;;;10.55;4.25;;;;;;;10.99;99.15;100751.72;5220859;28;20021;-76
2022/11/05 08:51:52;;;;;;;13.52;4.82;;;;;;;10.60;100.00;100772.19;5219670;28;20036;-77
2022/11/05 08:54:22;;;;;;;14.73;5.13;;;;;;;10.68;100.00;100775.38;5221165;28;20082;-76
2022/11/05 08:56:52;;;;;;;15.68;4.95;;;;;;;10.90;100.00;100775.53;5220577;28;20021;-76
2022/11/05 08:59:23;;;;;;;12.75;5.53;;;;;;;10.92;100.00;100786.81;5220102;28;20025;-76
2022/11/05 09:01:53;;;;;;;17.75;6.78;;;;;;;11.02;100.00;100772.53;5219759;28;20483;-76
2022/11/05 09:04:24;;;;;;;21.88;6.90;;;;;;;11.15;99.86;100772.91;5219888;28;20030;-76
2022/11/05 09:06:54;;;;;;;17.38;7.70;;;;;;;11.09;100.00;100773.09;5218354;28;20029;-76
2022/11/05 09:09:24;;;;;;;13.43;6.40;;;;;;;11.17;100.00;100778.06;5220515;28;20032;-76
2022/11/05 09:11:55;;;;;;;16.17;6.82;;;;;;;11.13;100.00;100777.31;5218679;28;20052;-76
2022/11/05 09:14:25;;;;;;;15.73;7.03;;;;;;;11.04;100.00;100782.88;5219329;28;20402;-76
2022/11/05 09:16:56;;;;;;;15.10;6.80;;;;;;;11.06;100.00;100790.66;5220390;28;20541;-76
2022/11/05 09:19:26;;;;;;;16.23;7.05;;;;;;;11.05;100.00;100788.94;5217691;28;20033;-76
2022/11/05 09:21:58;;;;;;;16.60;6.97;;;;;;;11.25;100.00;100787.34;5220173;28;20028;-76
2022/11/05 09:24:28;;;;;;;17.55;6.78;;;;;;;11.36;100.00;100785.22;5222707;28;20460;-76
2022/11/05 09:26:58;;;;;;;18.38;6.40;;;;;;;11.41;97.77;100800.78;5222076;28;20119;-76
2022/11/05 09:29:28;;;;;;;14.63;6.60;;;;;;;11.44;99.22;100791.03;5223516;28;20021;-76
2022/11/05 09:31:59;;;;;;;15.00;6.50;;;;;;;11.48;100.00;100792.63;5224542;28;20103;-76
2022/11/05 09:34:29;;;;;;;21.27;6.85;;;;;;;11.91;97.77;100789.31;5224012;28;20037;-76
2022/11/05 09:37:00;;;;;;;11.15;5.20;;;;;;;11.43;97.88;100797.19;5223707;28;20479;-76
2022/11/05 09:39:30;;;;;;;11.68;5.57;;;;;;;11.58;96.95;100798.44;5221758;28;20123;-75
2022/11/05 09:42:06;;;;;;;14.52;4.90;;;;;;;11.13;98.45;100798.22;5223928;28;20044;-76
2022/11/05 09:44:44;;;;;;;16.52;5.38;;;;;;;11.15;97.76;100806.03;5218271;28;20032;-76
2022/11/05 09:47:26;;;;;;;12.75;5.10;;;;;;;11.13;98.29;100808.69;5221714;28;20040;-75
2022/11/05 09:49:59;;;;;;;12.43;5.38;;;;;;;11.28;97.30;100802.94;5218937;28;20529;-75
2022/11/05 09:52:32;;;;;;;15.50;6.13;;;;;;;11.46;97.60;100807.53;5222763;28;20032;-75
2022/11/05 09:55:03;;;;;;;19.08;7.35;;;;;;;11.34;100.00;100805.38;5222939;28;20051;-76
2022/11/05 09:57:44;;;;;;;16.73;7.20;;;;;;;11.76;98.89;100819.56;5221981;28;20032;-76
2022/11/05 10:00:16;;;;;;;16.63;6.70;;;;;;;11.59;97.87;100803.59;5224010;28;20021;-76
2022/11/05 10:02:51;;;;;;;17.85;6.15;;;;;;;11.56;96.60;100814.19;5223220;28;20292;-76
2022/11/05 10:05:24;;;;;;;14.25;5.95;;;;;;;11.48;97.57;100820.56;5223289;28;20056;-76
2022/11/05 10:08:02;;;;;;;15.43;6.20;;;;;;;11.53;95.75;100824.75;5219405;28;20398;-76
2022/11/05 10:10:36;;;;;;;17.48;6.32;;;;;;;11.46;98.92;100825.84;5220726;28;20029;-76
2022/11/05 10:13:44;;;;;;;16.08;6.10;;;;;;;11.60;96.28;100825.41;5222506;28;20071;-76
2022/11/05 10:16:22;;;;;;;18.73;6.07;;;;;;;11.21;97.66;100826.75;5221612;28;20047;-76
2022/11/05 10:18:59;;;;;;;14.63;5.85;;;;;;;11.19;97.55;100834.66;5220752;28;20055;-76
2022/11/05 10:21:29;;;;;;;13.43;4.97;;;;;;;11.04;98.89;100844.78;5221964;28;20017;-75
2022/11/05 10:24:00;;;;;;;11.73;4.75;;;;;;;11.28;98.19;100839.56;5222377;28;20525;-76
2022/11/05 10:26:31;;;;;;;11.00;4.75;;;;;;;10.97;97.95;100843.28;5222097;28;20406;-76
2022/11/05 10:29:01;;;;;;;12.50;4.53;;;;;;;10.92;98.20;100849.56;5221437;28;20040;-76
2022/11/05 10:31:35;;;;;;;13.07;4.88;;;;;;;10.86;99.42;100855.00;5222625;28;20391;-76
2022/11/05 10:34:07;;;;;;;12.15;5.28;;;;;;;11.07;98.99;100858.63;5221423;28;20495;-76
2022/11/05 10:36:38;;;;;;;12.65;5.00;;;;;;;11.03;99.26;100859.63;5222026;28;20039;-76
2022/11/05 10:39:16;;;;;;;15.75;4.82;;;;;;;11.16;98.22;100860.06;5221673;28;20510;-76
2022/11/05 10:42:13;;;;;;;13.18;5.60;;;;;;;11.22;98.58;100854.63;5222380;28;20384;-76
2022/11/05 10:45:00;;;;;;;10.57;4.65;;;;;;;11.44;97.13;100839.91;5218620;28;20036;-76
2022/11/05 10:47:36;;;;;;;15.50;5.68;;;;;;;11.60;97.32;100841.13;5219208;28;20422;-76
2022/11/05 10:50:40;;;;;;;10.95;4.72;;;;;;;11.81;97.13;100851.66;5221012;28;20052;-76
2022/11/05 10:53:15;;;;;;;10.60;4.63;;;;;;;12.05;95.24;100844.66;5213957;28;20056;-76
2022/11/05 10:55:48;;;;;;;15.50;4.97;;;;;;;12.15;94.68;100846.88;5220417;28;20044;-76
2022/11/05 10:58:27;;;;;;;9.82;4.20;;;;;;;12.26;93.38;100846.50;5218374;28;20362;-75
2022/11/05 11:00:57;;;;;;;11.25;4.57;;;;;;;12.21;95.47;100846.69;5217614;28;20048;-76
2022/11/05 11:03:44;;;;;;;12.20;4.37;;;;;;;12.30;94.03;100848.09;5222090;28;20188;-76
2022/11/05 11:06:36;;;;;;;;;;;;;;;11.95;92.17;100854.63;5221744;28;20275;-76
2022/11/05 11:09:27;;;;;;;12.90;4.93;;;;;;;11.96;93.26;100856.34;5218104;28;19963;-76
2022/11/05 11:12:14;;;;;;;12.00;4.82;;;;;;;11.89;92.97;100854.88;5217458;28;20106;-76
2022/11/05 11:15:11;;;;;;;10.02;4.65;;;;;;;11.75;94.79;100867.59;5218735;28;20106;-75
2022/11/05 11:17:41;;;;;;;15.75;4.68;;;;;;;11.62;93.65;100861.09;5219233;28;20025;-76
2022/11/05 11:20:22;;;;;;;10.48;4.80;;;;;;;11.53;94.34;100861.38;5220932;28;20086;-76
2022/11/05 11:23:12;;;;;;;11.68;4.55;;;;;;;11.55;95.61;100861.31;5221564;28;20009;-76
2022/11/05 11:26:02;;;;;;;14.52;4.53;;;;;;;11.44;95.20;100864.31;5220154;28;20624;-75
2022/11/05 11:28:36;;;;;;;12.20;4.10;;;;;;;11.46;95.06;100852.03;5217596;28;20043;-76
2022/11/05 11:31:16;;;;;;;12.63;4.15;;;;;;;11.62;95.20;100855.00;5221080;28;20044;-75
2022/11/05 11:33:50;;;;;;;12.55;4.40;;;;;;;11.65;96.10;100853.13;5220387;28;20067;-76
2022/11/05 11:36:25;;;;;;;8.82;3.88;;;;;;;11.52;95.19;100854.44;5220133;28;20055;-76
2022/11/05 11:39:01;;;;;;;9.95;3.92;;;;;;;11.63;94.88;100847.09;5217624;28;20510;-76
2022/11/05 11:41:38;;;;;;;9.63;3.72;;;;;;;11.88;93.36;100847.06;5220263;28;20139;-76
2022/11/05 11:44:16;;;;;;;13.43;4.22;;;;;;;11.72;93.37;100852.00;5219670;28;20118;-76
2022/11/05 11:46:49;;;;;;;12.20;3.92;;;;;;;11.84;94.63;100850.72;5217675;28;20052;-76
2022/11/05 11:49:57;;;;;;;8.63;3.63;;;;;;;11.95;93.20;100838.91;5220010;28;20566;-76
2022/11/05 11:52:27;;;;;;;10.10;3.50;;;;;;;12.01;91.66;100843.97;5188898;28;20175;-76
2022/11/05 11:55:17;;;;;;;11.40;3.65;;;;;;;12.14;91.48;100839.94;5219242;28;20100;-76
2022/11/05 11:57:51;;;;;;;11.20;3.63;;;;;;;12.16;91.60;100838.13;5218873;28;20455;-75
2022/11/05 12:00:24;;;;;;;7.65;3.50;;;;;;;12.07;91.26;100846.34;5221063;28;20013;-76
2022/11/05 12:03:10;;;;;;;10.75;3.83;;;;;;;12.11;89.75;100836.59;5216497;28;20041;-75
2022/11/05 12:05:58;;;;;;;8.07;3.35;;;;;;;12.21;90.15;100832.72;5218705;28;20147;-75
2022/11/05 12:08:34;;;;;;;10.32;3.03;;;;;;;12.09;90.16;100828.78;5218691;28;20051;-76
2022/11/05 12:11:13;;;;;;;9.73;3.50;;;;;;;12.26;90.58;100828.16;5220516;28;20091;-76
2022/11/05 12:14:02;;;;;;;13.38;3.33;;;;;;;12.16;90.38;100827.63;5220255;28;20041;-75
2022/11/05 12:16:54;;;;;;;6.50;2.67;;;;;;;12.06;90.19;100823.66;5217467;28;20025;-76
2022/11/05 12:19:39;;;;;;;7.22;2.92;;;;;;;12.33;89.50;100825.22;5216565;28;20021;-76
2022/11/05 12:22:19;;;;;;;8.65;3.30;;;;;;;12.54;87.28;100824.41;5213609;28;20036;-76
2022/11/05 12:25:19;;;;;;;9.43;3.20;;;;;;;12.44;88.35;100828.28;5218569;28;20039;-76
2022/11/05 12:27:56;;;;;;;7.82;3.10;;;;;;;12.53;87.57;100825.31;5218037;28;20044;-75
2022/11/05 12:30:36;;;;;;;11.13;3.47;;;;;;;12.54;86.89;100813.06;5215948;28;20032;-76
2022/11/05 12:33:15;;;;;;;8.93;3.00;;;;;;;12.70;86.75;100825.50;5219225;28;20079;-76
2022/11/05 12:35:49;;;;;;;6.22;3.30;;;;;;;12.59;87.30;100817.22;5216929;28;20036;-76
2022/11/05 12:38:34;;;;;;;7.95;3.03;;;;;;;12.68;86.24;100821.22;5219085;28;20036;-76